THY1TCA LTAC-LTFM
Flight info
| Callsign | THY1TCA |
|---|---|
| Flight time | 0h 46m |
| Altitude | 28000 |
| Route | YAVRU1D/21R YAVRU A4 ERSEN |
| Aircraft | B738/M-SDE2E3FGHIRWXY/LB1 |
Departure
| Time | 2026-05-06 19:45 |
|---|---|
| Airport | Esenboğa International Airport (LTAC) |
Arrival
| Time | 2026-05-06 20:32 |
|---|---|
| Airport | İstanbul Airport (LTFM) |
| Time | Latitude | Longitude | Altitude | Speed | Heading |
|---|---|---|---|---|---|
| 2026-05-06 19:16 | 40.11494 | 32.98951 | 3133 ft | 0 kts | 131° |
| 2026-05-06 19:35 | 40.11497 | 32.98945 | 3133 ft | 2 kts | 129° |
| 2026-05-06 19:35 | 40.11511 | 32.98923 | 3133 ft | 2 kts | 127° |
| 2026-05-06 19:35 | 40.11521 | 32.98906 | 3133 ft | 2 kts | 120° |
| 2026-05-06 19:35 | 40.11527 | 32.98886 | 3133 ft | 2 kts | 82° |
| 2026-05-06 19:36 | 40.11521 | 32.98871 | 3133 ft | 1 kts | 42° |
| 2026-05-06 19:38 | 40.11532 | 32.98884 | 3133 ft | 7 kts | 41° |
| 2026-05-06 19:38 | 40.11586 | 32.98944 | 3133 ft | 7 kts | 31° |
| 2026-05-06 19:39 | 40.11631 | 32.98928 | 3133 ft | 7 kts | 319° |
| 2026-05-06 19:39 | 40.11662 | 32.98884 | 3133 ft | 3 kts | 327° |
| 2026-05-06 19:39 | 40.11675 | 32.98886 | 3133 ft | 3 kts | 15° |
| 2026-05-06 19:39 | 40.11763 | 32.98963 | 3133 ft | 31 kts | 37° |
| 2026-05-06 19:40 | 40.12040 | 32.99226 | 3133 ft | 51 kts | 36° |
| 2026-05-06 19:40 | 40.12220 | 32.99400 | 3133 ft | 9 kts | 37° |
| 2026-05-06 19:40 | 40.12270 | 32.99448 | 3133 ft | 9 kts | 34° |
| 2026-05-06 19:40 | 40.12319 | 32.99495 | 3133 ft | 9 kts | 36° |
| 2026-05-06 19:41 | 40.12448 | 32.99617 | 3133 ft | 56 kts | 36° |
| 2026-05-06 19:41 | 40.12791 | 32.99947 | 3133 ft | 59 kts | 36° |
| 2026-05-06 19:41 | 40.13109 | 33.00250 | 3133 ft | 54 kts | 37° |
| 2026-05-06 19:41 | 40.13400 | 33.00526 | 3134 ft | 49 kts | 36° |
| 2026-05-06 19:42 | 40.13664 | 33.00779 | 3133 ft | 45 kts | 36° |
| 2026-05-06 19:42 | 40.13898 | 33.01004 | 3133 ft | 35 kts | 36° |
| 2026-05-06 19:42 | 40.14028 | 33.01074 | 3134 ft | 11 kts | 349° |
| 2026-05-06 19:42 | 40.14072 | 33.01048 | 3134 ft | 0 kts | 315° |
| 2026-05-06 19:43 | 40.14089 | 33.01020 | 3134 ft | 12 kts | 303° |
| 2026-05-06 19:43 | 40.14147 | 33.00866 | 3134 ft | 27 kts | 307° |
| 2026-05-06 19:43 | 40.14211 | 33.00730 | 3133 ft | 9 kts | 268° |
| 2026-05-06 19:44 | 40.14181 | 33.00658 | 3132 ft | 7 kts | 215° |
| 2026-05-06 19:44 | 40.14141 | 33.00624 | 3131 ft | 7 kts | 215° |
| 2026-05-06 19:44 | 40.13955 | 33.00448 | 3132 ft | 68 kts | 215° |
| 2026-05-06 19:44 | 40.13385 | 32.99902 | 3133 ft | 133 kts | 216° |
| 2026-05-06 19:45 | 40.12496 | 32.99053 | 3248 ft | 175 kts | 216° |
| 2026-05-06 19:45 | 40.11841 | 32.98431 | 3743 ft | 172 kts | 216° |
| 2026-05-06 19:45 | 40.10837 | 32.97479 | 4406 ft | 188 kts | 217° |
| 2026-05-06 19:45 | 40.09394 | 32.96095 | 5346 ft | 198 kts | 216° |
| 2026-05-06 19:46 | 40.08262 | 32.95038 | 6019 ft | 201 kts | 216° |
| 2026-05-06 19:46 | 40.07488 | 32.94315 | 6449 ft | 203 kts | 216° |
| 2026-05-06 19:46 | 40.06308 | 32.93209 | 6802 ft | 221 kts | 216° |
| 2026-05-06 19:46 | 40.04991 | 32.91974 | 7031 ft | 243 kts | 216° |
| 2026-05-06 19:47 | 40.03164 | 32.90152 | 7717 ft | 255 kts | 228° |
| 2026-05-06 19:47 | 40.02730 | 32.89410 | 8011 ft | 257 kts | 239° |
| 2026-05-06 19:47 | 40.02297 | 32.88052 | 8566 ft | 257 kts | 257° |
| 2026-05-06 19:47 | 40.02287 | 32.85686 | 9142 ft | 273 kts | 285° |
| 2026-05-06 19:48 | 40.03194 | 32.83440 | 9712 ft | 287 kts | 305° |
| 2026-05-06 19:48 | 40.04415 | 32.81335 | 10358 ft | 297 kts | 307° |
| 2026-05-06 19:48 | 40.05733 | 32.79100 | 10562 ft | 323 kts | 307° |
| 2026-05-06 19:48 | 40.06090 | 32.78489 | 10612 ft | 329 kts | 306° |
| 2026-05-06 19:49 | 40.07202 | 32.76573 | 10816 ft | 345 kts | 306° |
| 2026-05-06 19:49 | 40.07602 | 32.75879 | 10953 ft | 348 kts | 306° |
| 2026-05-06 19:49 | 40.09072 | 32.73320 | 11642 ft | 354 kts | 306° |
| 2026-05-06 19:49 | 40.10544 | 32.70744 | 12445 ft | 355 kts | 306° |
| 2026-05-06 19:50 | 40.12026 | 32.68145 | 13256 ft | 357 kts | 307° |
| 2026-05-06 19:50 | 40.13519 | 32.65525 | 14019 ft | 360 kts | 307° |
| 2026-05-06 19:50 | 40.15022 | 32.62884 | 14683 ft | 364 kts | 307° |
| 2026-05-06 19:50 | 40.16538 | 32.60219 | 15357 ft | 367 kts | 307° |
| 2026-05-06 19:51 | 40.17351 | 32.58790 | 15718 ft | 368 kts | 307° |
| 2026-05-06 19:51 | 40.17719 | 32.58143 | 15840 ft | 370 kts | 307° |
| 2026-05-06 19:52 | 40.18446 | 32.56863 | 15899 ft | 368 kts | 307° |
| 2026-05-06 19:52 | 40.19968 | 32.54184 | 16017 ft | 369 kts | 307° |
| 2026-05-06 19:52 | 40.21614 | 32.51590 | 16094 ft | 370 kts | 314° |
| 2026-05-06 19:52 | 40.23458 | 32.49252 | 16126 ft | 370 kts | 318° |
| 2026-05-06 19:53 | 40.25375 | 32.46985 | 16131 ft | 371 kts | 319° |
| 2026-05-06 19:53 | 40.27296 | 32.44723 | 16137 ft | 371 kts | 318° |
| 2026-05-06 19:53 | 40.29200 | 32.42447 | 16137 ft | 371 kts | 318° |
| 2026-05-06 19:53 | 40.31095 | 32.40145 | 16130 ft | 372 kts | 317° |
| 2026-05-06 19:54 | 40.32981 | 32.37828 | 16117 ft | 371 kts | 317° |
| 2026-05-06 19:54 | 40.34859 | 32.35507 | 16135 ft | 371 kts | 317° |
| 2026-05-06 19:54 | 40.36742 | 32.33173 | 16356 ft | 376 kts | 317° |
| 2026-05-06 19:54 | 40.38651 | 32.30806 | 17095 ft | 376 kts | 317° |
| 2026-05-06 19:55 | 40.40540 | 32.28462 | 17866 ft | 376 kts | 317° |
| 2026-05-06 19:55 | 40.42457 | 32.26082 | 18527 ft | 379 kts | 317° |
| 2026-05-06 19:55 | 40.44380 | 32.23692 | 19095 ft | 381 kts | 317° |
| 2026-05-06 19:55 | 40.46305 | 32.21283 | 19667 ft | 384 kts | 315° |
| 2026-05-06 19:56 | 40.47885 | 32.18454 | 20207 ft | 389 kts | 297° |
| 2026-05-06 19:56 | 40.48934 | 32.15170 | 20805 ft | 391 kts | 292° |
| 2026-05-06 19:56 | 40.49903 | 32.11808 | 21350 ft | 394 kts | 292° |
| 2026-05-06 19:56 | 40.50862 | 32.08428 | 21867 ft | 397 kts | 292° |
| 2026-05-06 19:57 | 40.51837 | 32.05022 | 22389 ft | 400 kts | 292° |
| 2026-05-06 19:57 | 40.52829 | 32.01599 | 22899 ft | 402 kts | 293° |
| 2026-05-06 19:57 | 40.53838 | 31.98152 | 23413 ft | 405 kts | 293° |
| 2026-05-06 19:57 | 40.54858 | 31.94681 | 23870 ft | 407 kts | 293° |
| 2026-05-06 19:58 | 40.55884 | 31.91195 | 24295 ft | 409 kts | 293° |
| 2026-05-06 19:58 | 40.56911 | 31.87701 | 24733 ft | 411 kts | 293° |
| 2026-05-06 19:58 | 40.57943 | 31.84184 | 25155 ft | 412 kts | 293° |
| 2026-05-06 19:58 | 40.58940 | 31.80649 | 25677 ft | 412 kts | 291° |
| 2026-05-06 19:59 | 40.59843 | 31.77097 | 26291 ft | 408 kts | 290° |
| 2026-05-06 19:59 | 40.60707 | 31.73546 | 26888 ft | 406 kts | 290° |
| 2026-05-06 19:59 | 40.61557 | 31.70013 | 27405 ft | 405 kts | 290° |
| 2026-05-06 19:59 | 40.62408 | 31.66488 | 27904 ft | 404 kts | 290° |
| 2026-05-06 20:00 | 40.63258 | 31.62996 | 28116 ft | 407 kts | 291° |
| 2026-05-06 20:00 | 40.64122 | 31.59464 | 28125 ft | 404 kts | 291° |
| 2026-05-06 20:00 | 40.65852 | 31.52425 | 28126 ft | 404 kts | 291° |
| 2026-05-06 20:01 | 40.67580 | 31.45396 | 28119 ft | 403 kts | 291° |
| 2026-05-06 20:01 | 40.69304 | 31.38367 | 28121 ft | 403 kts | 291° |
| 2026-05-06 20:02 | 40.70538 | 31.31134 | 28115 ft | 408 kts | 281° |
| 2026-05-06 20:02 | 40.71232 | 31.23703 | 28108 ft | 409 kts | 280° |
| 2026-05-06 20:03 | 40.71928 | 31.16252 | 28094 ft | 409 kts | 281° |
| 2026-05-06 20:03 | 40.72631 | 31.08919 | 28088 ft | 392 kts | 281° |
| 2026-05-06 20:04 | 40.73318 | 31.01863 | 28097 ft | 388 kts | 281° |
| 2026-05-06 20:04 | 40.74008 | 30.94801 | 28091 ft | 386 kts | 281° |
| 2026-05-06 20:05 | 40.74345 | 30.91324 | 27872 ft | 379 kts | 281° |
| 2026-05-06 20:05 | 40.74676 | 30.87885 | 27453 ft | 376 kts | 281° |
| 2026-05-06 20:05 | 40.75008 | 30.84451 | 26844 ft | 378 kts | 281° |
| 2026-05-06 20:05 | 40.75334 | 30.81058 | 26363 ft | 378 kts | 280° |
| 2026-05-06 20:06 | 40.75663 | 30.77629 | 25949 ft | 376 kts | 280° |
| 2026-05-06 20:06 | 40.75989 | 30.74214 | 25538 ft | 373 kts | 280° |
| 2026-05-06 20:06 | 40.76311 | 30.70825 | 25115 ft | 372 kts | 280° |
| 2026-05-06 20:06 | 40.76630 | 30.67455 | 24694 ft | 370 kts | 280° |
| 2026-05-06 20:07 | 40.76948 | 30.64086 | 24275 ft | 369 kts | 279° |
| 2026-05-06 20:07 | 40.77263 | 30.60740 | 23869 ft | 368 kts | 279° |
| 2026-05-06 20:07 | 40.77578 | 30.57389 | 23441 ft | 366 kts | 279° |
| 2026-05-06 20:07 | 40.77889 | 30.54066 | 23007 ft | 364 kts | 279° |
| 2026-05-06 20:08 | 40.78197 | 30.50762 | 22605 ft | 361 kts | 279° |
| 2026-05-06 20:08 | 40.78501 | 30.47485 | 22184 ft | 359 kts | 279° |
| 2026-05-06 20:08 | 40.78803 | 30.44221 | 21764 ft | 357 kts | 279° |
| 2026-05-06 20:08 | 40.79103 | 30.40983 | 21364 ft | 355 kts | 279° |
| 2026-05-06 20:09 | 40.79400 | 30.37751 | 20968 ft | 353 kts | 279° |
| 2026-05-06 20:09 | 40.79695 | 30.34541 | 20581 ft | 351 kts | 279° |
| 2026-05-06 20:09 | 40.79987 | 30.31351 | 20195 ft | 349 kts | 279° |
| 2026-05-06 20:09 | 40.80276 | 30.28179 | 19815 ft | 348 kts | 279° |
| 2026-05-06 20:10 | 40.80564 | 30.25019 | 19447 ft | 346 kts | 279° |
| 2026-05-06 20:10 | 40.80849 | 30.21872 | 19083 ft | 344 kts | 279° |
| 2026-05-06 20:10 | 40.81132 | 30.18745 | 18724 ft | 342 kts | 279° |
| 2026-05-06 20:10 | 40.81412 | 30.15634 | 18373 ft | 340 kts | 279° |
| 2026-05-06 20:11 | 40.81686 | 30.12587 | 17995 ft | 338 kts | 279° |
| 2026-05-06 20:11 | 40.81961 | 30.09516 | 17627 ft | 336 kts | 279° |
| 2026-05-06 20:11 | 40.82232 | 30.06473 | 17259 ft | 333 kts | 279° |
| 2026-05-06 20:11 | 40.82502 | 30.03446 | 16894 ft | 331 kts | 279° |
| 2026-05-06 20:12 | 40.82769 | 30.00441 | 16526 ft | 328 kts | 279° |
| 2026-05-06 20:12 | 40.83032 | 29.97456 | 16168 ft | 326 kts | 279° |
| 2026-05-06 20:12 | 40.83295 | 29.94482 | 15799 ft | 324 kts | 279° |
| 2026-05-06 20:12 | 40.83554 | 29.91540 | 15445 ft | 322 kts | 279° |
| 2026-05-06 20:13 | 40.83811 | 29.88607 | 15087 ft | 320 kts | 279° |
| 2026-05-06 20:13 | 40.84067 | 29.85697 | 14747 ft | 318 kts | 279° |
| 2026-05-06 20:13 | 40.84321 | 29.82797 | 14426 ft | 316 kts | 279° |
| 2026-05-06 20:13 | 40.84570 | 29.79924 | 14092 ft | 314 kts | 279° |
| 2026-05-06 20:14 | 40.84818 | 29.77064 | 13745 ft | 313 kts | 280° |
| 2026-05-06 20:14 | 40.85063 | 29.74219 | 13384 ft | 311 kts | 280° |
| 2026-05-06 20:14 | 40.85308 | 29.71386 | 13022 ft | 309 kts | 279° |
| 2026-05-06 20:14 | 40.85549 | 29.68574 | 12668 ft | 308 kts | 279° |
| 2026-05-06 20:15 | 40.85789 | 29.65777 | 12304 ft | 306 kts | 279° |
| 2026-05-06 20:15 | 40.86029 | 29.62975 | 11951 ft | 305 kts | 279° |
| 2026-05-06 20:15 | 40.86265 | 29.60195 | 11614 ft | 304 kts | 279° |
| 2026-05-06 20:15 | 40.86500 | 29.57430 | 11281 ft | 302 kts | 279° |
| 2026-05-06 20:16 | 40.86732 | 29.54682 | 10929 ft | 301 kts | 279° |
| 2026-05-06 20:16 | 40.86964 | 29.51931 | 10594 ft | 300 kts | 279° |
| 2026-05-06 20:16 | 40.87195 | 29.49199 | 10281 ft | 299 kts | 279° |
| 2026-05-06 20:16 | 40.87423 | 29.46480 | 9952 ft | 297 kts | 279° |
| 2026-05-06 20:17 | 40.87650 | 29.43775 | 9605 ft | 295 kts | 279° |
| 2026-05-06 20:17 | 40.87875 | 29.41084 | 9276 ft | 293 kts | 279° |
| 2026-05-06 20:17 | 40.88097 | 29.38417 | 8944 ft | 291 kts | 279° |
| 2026-05-06 20:17 | 40.88316 | 29.35774 | 8615 ft | 289 kts | 279° |
| 2026-05-06 20:18 | 40.88534 | 29.33137 | 8293 ft | 287 kts | 279° |
| 2026-05-06 20:18 | 40.88750 | 29.30526 | 7966 ft | 285 kts | 279° |
| 2026-05-06 20:18 | 40.88964 | 29.27931 | 7662 ft | 283 kts | 278° |
| 2026-05-06 20:18 | 40.89176 | 29.25348 | 7351 ft | 281 kts | 278° |
| 2026-05-06 20:19 | 40.89386 | 29.22788 | 7040 ft | 279 kts | 278° |
| 2026-05-06 20:19 | 40.89594 | 29.20243 | 6728 ft | 278 kts | 278° |
| 2026-05-06 20:19 | 40.89800 | 29.17714 | 6429 ft | 276 kts | 278° |
| 2026-05-06 20:19 | 40.90004 | 29.15202 | 6107 ft | 274 kts | 278° |
| 2026-05-06 20:20 | 40.90206 | 29.12708 | 5796 ft | 272 kts | 278° |
| 2026-05-06 20:20 | 40.90406 | 29.10233 | 5479 ft | 270 kts | 278° |
| 2026-05-06 20:20 | 40.90606 | 29.07764 | 5162 ft | 269 kts | 278° |
| 2026-05-06 20:20 | 40.90802 | 29.05315 | 5029 ft | 268 kts | 278° |
| 2026-05-06 20:21 | 40.90999 | 29.02856 | 4998 ft | 269 kts | 278° |
| 2026-05-06 20:21 | 40.91196 | 29.00413 | 4988 ft | 264 kts | 278° |
| 2026-05-06 20:21 | 40.91401 | 28.98061 | 4976 ft | 251 kts | 278° |
| 2026-05-06 20:21 | 40.91599 | 28.95827 | 4969 ft | 238 kts | 278° |
| 2026-05-06 20:22 | 40.91785 | 28.93715 | 4989 ft | 224 kts | 278° |
| 2026-05-06 20:22 | 40.91956 | 28.91751 | 4978 ft | 207 kts | 279° |
| 2026-05-06 20:22 | 40.92115 | 28.89930 | 4978 ft | 194 kts | 279° |
| 2026-05-06 20:22 | 40.92268 | 28.88190 | 4988 ft | 192 kts | 279° |
| 2026-05-06 20:23 | 40.92423 | 28.86428 | 4997 ft | 193 kts | 279° |
| 2026-05-06 20:23 | 40.92577 | 28.84661 | 5000 ft | 194 kts | 279° |
| 2026-05-06 20:23 | 40.92731 | 28.82884 | 4998 ft | 195 kts | 279° |
| 2026-05-06 20:23 | 40.92887 | 28.81108 | 4995 ft | 195 kts | 281° |
| 2026-05-06 20:24 | 40.93426 | 28.79512 | 5002 ft | 190 kts | 312° |
| 2026-05-06 20:24 | 40.94435 | 28.78429 | 4995 ft | 184 kts | 326° |
| 2026-05-06 20:24 | 40.95501 | 28.77585 | 4990 ft | 174 kts | 327° |
| 2026-05-06 20:24 | 40.96536 | 28.76794 | 4977 ft | 171 kts | 332° |
| 2026-05-06 20:25 | 40.97705 | 28.76469 | 5016 ft | 175 kts | 351° |
| 2026-05-06 20:25 | 40.98931 | 28.76320 | 5005 ft | 179 kts | 352° |
| 2026-05-06 20:25 | 41.00185 | 28.76220 | 5005 ft | 181 kts | 353° |
| 2026-05-06 20:25 | 41.01433 | 28.76163 | 4997 ft | 177 kts | 354° |
| 2026-05-06 20:26 | 41.02661 | 28.76126 | 4918 ft | 179 kts | 354° |
| 2026-05-06 20:26 | 41.03899 | 28.76098 | 4709 ft | 176 kts | 355° |
| 2026-05-06 20:26 | 41.05117 | 28.76072 | 4471 ft | 175 kts | 355° |
| 2026-05-06 20:26 | 41.06335 | 28.76049 | 4224 ft | 172 kts | 355° |
| 2026-05-06 20:27 | 41.07507 | 28.76027 | 3993 ft | 166 kts | 356° |
| 2026-05-06 20:27 | 41.08651 | 28.76005 | 3783 ft | 163 kts | 356° |
| 2026-05-06 20:27 | 41.09790 | 28.75983 | 3574 ft | 164 kts | 356° |
| 2026-05-06 20:27 | 41.10936 | 28.75961 | 3351 ft | 165 kts | 356° |
| 2026-05-06 20:28 | 41.12085 | 28.75939 | 3143 ft | 165 kts | 357° |
| 2026-05-06 20:28 | 41.13242 | 28.75917 | 2906 ft | 166 kts | 357° |
| 2026-05-06 20:28 | 41.14387 | 28.75895 | 2708 ft | 165 kts | 358° |
| 2026-05-06 20:28 | 41.15538 | 28.75874 | 2465 ft | 165 kts | 358° |
| 2026-05-06 20:29 | 41.16682 | 28.75852 | 2248 ft | 164 kts | 358° |
| 2026-05-06 20:29 | 41.17803 | 28.75830 | 2021 ft | 158 kts | 358° |
| 2026-05-06 20:29 | 41.18875 | 28.75810 | 1813 ft | 154 kts | 358° |
| 2026-05-06 20:29 | 41.19946 | 28.75790 | 1605 ft | 154 kts | 359° |
| 2026-05-06 20:30 | 41.21017 | 28.75770 | 1399 ft | 154 kts | 359° |
| 2026-05-06 20:30 | 41.23152 | 28.75728 | 968 ft | 153 kts | 1° |
| 2026-05-06 20:30 | 41.23875 | 28.75714 | 819 ft | 154 kts | 1° |
| 2026-05-06 20:31 | 41.24941 | 28.75698 | 627 ft | 153 kts | 2° |
| 2026-05-06 20:31 | 41.26002 | 28.75671 | 402 ft | 153 kts | 2° |
| 2026-05-06 20:31 | 41.27015 | 28.75654 | 330 ft | 129 kts | 359° |
| 2026-05-06 20:31 | 41.27762 | 28.75641 | 329 ft | 77 kts | 359° |
| 2026-05-06 20:32 | 41.27987 | 28.75607 | 330 ft | 16 kts | 342° |
| 2026-05-06 20:32 | 41.28053 | 28.75567 | 330 ft | 15 kts | 325° |
| 2026-05-06 20:32 | 41.28141 | 28.75491 | 331 ft | 15 kts | 322° |
| 2026-05-06 20:32 | 41.28157 | 28.75382 | 333 ft | 4 kts | 229° |
| 2026-05-06 20:33 | 41.28138 | 28.75359 | 333 ft | 4 kts | 210° |
| 2026-05-06 20:33 | 41.28111 | 28.75349 | 333 ft | 4 kts | 191° |
| 2026-05-06 20:33 | 41.28084 | 28.75347 | 329 ft | 4 kts | 179° |
| 2026-05-06 20:33 | 41.28052 | 28.75349 | 332 ft | 7 kts | 176° |
| 2026-05-06 20:34 | 41.27970 | 28.75352 | 333 ft | 17 kts | 180° |
| 2026-05-06 20:34 | 41.27818 | 28.75357 | 330 ft | 26 kts | 171° |
| 2026-05-06 20:34 | 41.27619 | 28.75362 | 332 ft | 33 kts | 180° |